sensor_id;sensor_type;location;lat;lon;timestamp;temperature;humidity
6379;DHT22;3222;48.858;10.128;2022-07-29T00:01:49;20.80;96.40
6379;DHT22;3222;48.858;10.128;2022-07-29T00:04:14;20.80;96.60
6379;DHT22;3222;48.858;10.128;2022-07-29T00:06:40;20.80;96.70
6379;DHT22;3222;48.858;10.128;2022-07-29T00:09:06;20.80;96.90
6379;DHT22;3222;48.858;10.128;2022-07-29T00:11:32;20.80;96.70
6379;DHT22;3222;48.858;10.128;2022-07-29T00:13:58;20.80;96.80
6379;DHT22;3222;48.858;10.128;2022-07-29T00:16:23;20.80;96.80
6379;DHT22;3222;48.858;10.128;2022-07-29T00:18:49;20.80;97.00
6379;DHT22;3222;48.858;10.128;2022-07-29T00:21:15;20.80;96.90
6379;DHT22;3222;48.858;10.128;2022-07-29T00:23:40;20.80;96.90
6379;DHT22;3222;48.858;10.128;2022-07-29T00:26:06;20.80;96.90
6379;DHT22;3222;48.858;10.128;2022-07-29T00:28:32;20.80;96.80
6379;DHT22;3222;48.858;10.128;2022-07-29T00:30:58;20.70;96.70
6379;DHT22;3222;48.858;10.128;2022-07-29T00:33:23;20.70;96.50
6379;DHT22;3222;48.858;10.128;2022-07-29T00:35:49;20.70;96.40
6379;DHT22;3222;48.858;10.128;2022-07-29T00:38:17;20.60;96.10
6379;DHT22;3222;48.858;10.128;2022-07-29T00:40:44;20.50;95.90
6379;DHT22;3222;48.858;10.128;2022-07-29T00:43:11;20.50;95.80
6379;DHT22;3222;48.858;10.128;2022-07-29T00:45:37;20.50;95.90
6379;DHT22;3222;48.858;10.128;2022-07-29T00:48:04;20.50;95.90
6379;DHT22;3222;48.858;10.128;2022-07-29T00:50:31;20.40;95.90
6379;DHT22;3222;48.858;10.128;2022-07-29T00:52:57;20.40;95.70
6379;DHT22;3222;48.858;10.128;2022-07-29T00:55:23;20.50;95.50
6379;DHT22;3222;48.858;10.128;2022-07-29T00:57:49;20.50;95.50
6379;DHT22;3222;48.858;10.128;2022-07-29T01:00:20;20.50;95.50
6379;DHT22;3222;48.858;10.128;2022-07-29T01:02:46;20.50;95.50
6379;DHT22;3222;48.858;10.128;2022-07-29T01:05:17;20.60;95.50
6379;DHT22;3222;48.858;10.128;2022-07-29T01:07:44;20.60;95.40
6379;DHT22;3222;48.858;10.128;2022-07-29T01:10:12;20.60;95.30
6379;DHT22;3222;48.858;10.128;2022-07-29T01:12:40;20.60;95.30
6379;DHT22;3222;48.858;10.128;2022-07-29T01:15:07;20.50;95.30
6379;DHT22;3222;48.858;10.128;2022-07-29T01:17:51;20.50;95.30
6379;DHT22;3222;48.858;10.128;2022-07-29T01:20:25;20.50;95.40
6379;DHT22;3222;48.858;10.128;2022-07-29T01:23:01;20.50;95.30
6379;DHT22;3222;48.858;10.128;2022-07-29T01:28:45;20.40;95.50
6379;DHT22;3222;48.858;10.128;2022-07-29T01:31:15;20.40;95.50
6379;DHT22;3222;48.858;10.128;2022-07-29T01:33:43;20.20;95.50
6379;DHT22;3222;48.858;10.128;2022-07-29T01:36:29;20.20;95.50
6379;DHT22;3222;48.858;10.128;2022-07-29T01:39:10;20.20;95.60
6379;DHT22;3222;48.858;10.128;2022-07-29T01:41:40;20.20;95.60
6379;DHT22;3222;48.858;10.128;2022-07-29T01:44:17;20.10;95.80
6379;DHT22;3222;48.858;10.128;2022-07-29T01:46:49;20.10;95.70
6379;DHT22;3222;48.858;10.128;2022-07-29T01:49:18;20.10;95.70
6379;DHT22;3222;48.858;10.128;2022-07-29T01:51:50;20.10;95.70
6379;DHT22;3222;48.858;10.128;2022-07-29T01:54:26;20.10;95.70
6379;DHT22;3222;48.858;10.128;2022-07-29T01:56:56;20.10;95.80
6379;DHT22;3222;48.858;10.128;2022-07-29T01:59:23;20.10;95.80
6379;DHT22;3222;48.858;10.128;2022-07-29T02:01:53;20.00;95.80
6379;DHT22;3222;48.858;10.128;2022-07-29T02:04:20;20.10;95.90
6379;DHT22;3222;48.858;10.128;2022-07-29T02:06:48;20.10;95.70
6379;DHT22;3222;48.858;10.128;2022-07-29T02:09:15;20.20;95.90
6379;DHT22;3222;48.858;10.128;2022-07-29T02:11:48;20.20;95.80
6379;DHT22;3222;48.858;10.128;2022-07-29T02:14:17;20.30;95.50
6379;DHT22;3222;48.858;10.128;2022-07-29T02:16:45;20.30;95.70
6379;DHT22;3222;48.858;10.128;2022-07-29T02:19:12;20.40;95.70
6379;DHT22;3222;48.858;10.128;2022-07-29T02:21:40;20.30;95.60
6379;DHT22;3222;48.858;10.128;2022-07-29T02:24:07;20.30;95.40
6379;DHT22;3222;48.858;10.128;2022-07-29T02:26:34;20.20;95.40
6379;DHT22;3222;48.858;10.128;2022-07-29T02:29:01;20.20;95.60
6379;DHT22;3222;48.858;10.128;2022-07-29T02:31:30;20.10;95.50
6379;DHT22;3222;48.858;10.128;2022-07-29T02:33:59;20.10;95.90
6379;DHT22;3222;48.858;10.128;2022-07-29T02:36:26;20.20;96.00
6379;DHT22;3222;48.858;10.128;2022-07-29T02:38:55;20.30;95.80
6379;DHT22;3222;48.858;10.128;2022-07-29T02:41:43;20.20;95.60
6379;DHT22;3222;48.858;10.128;2022-07-29T02:44:12;20.40;95.40
6379;DHT22;3222;48.858;10.128;2022-07-29T02:46:45;20.20;95.30
6379;DHT22;3222;48.858;10.128;2022-07-29T02:51:54;20.30;95.50
6379;DHT22;3222;48.858;10.128;2022-07-29T02:54:33;20.30;95.40
6379;DHT22;3222;48.858;10.128;2022-07-29T02:57:09;20.20;95.50
6379;DHT22;3222;48.858;10.128;2022-07-29T02:59:37;20.10;95.70
6379;DHT22;3222;48.858;10.128;2022-07-29T03:02:05;20.10;95.90
6379;DHT22;3222;48.858;10.128;2022-07-29T03:04:32;20.00;95.90
6379;DHT22;3222;48.858;10.128;2022-07-29T03:07:00;20.00;96.10
6379;DHT22;3222;48.858;10.128;2022-07-29T03:09:27;19.90;96.00
6379;DHT22;3222;48.858;10.128;2022-07-29T03:11:54;19.90;96.30
6379;DHT22;3222;48.858;10.128;2022-07-29T03:14:20;19.80;96.30
6379;DHT22;3222;48.858;10.128;2022-07-29T03:16:48;19.80;96.40
6379;DHT22;3222;48.858;10.128;2022-07-29T03:19:15;19.80;96.50
6379;DHT22;3222;48.858;10.128;2022-07-29T03:21:41;19.80;96.30
6379;DHT22;3222;48.858;10.128;2022-07-29T03:24:07;19.70;96.50
6379;DHT22;3222;48.858;10.128;2022-07-29T03:26:33;19.60;96.40
6379;DHT22;3222;48.858;10.128;2022-07-29T03:28:59;19.60;96.60
6379;DHT22;3222;48.858;10.128;2022-07-29T03:31:25;19.60;96.60
6379;DHT22;3222;48.858;10.128;2022-07-29T03:33:51;19.60;96.50
6379;DHT22;3222;48.858;10.128;2022-07-29T03:36:16;19.50;96.40
6379;DHT22;3222;48.858;10.128;2022-07-29T03:38:42;19.50;96.50
6379;DHT22;3222;48.858;10.128;2022-07-29T03:41:10;19.30;96.80
6379;DHT22;3222;48.858;10.128;2022-07-29T03:43:38;19.20;96.80
6379;DHT22;3222;48.858;10.128;2022-07-29T03:46:07;19.20;96.90
6379;DHT22;3222;48.858;10.128;2022-07-29T03:48:37;19.10;97.00
6379;DHT22;3222;48.858;10.128;2022-07-29T03:51:05;19.10;97.10
6379;DHT22;3222;48.858;10.128;2022-07-29T03:53:32;19.10;97.10
6379;DHT22;3222;48.858;10.128;2022-07-29T03:55:59;19.10;97.10
6379;DHT22;3222;48.858;10.128;2022-07-29T03:58:27;19.10;97.10
6379;DHT22;3222;48.858;10.128;2022-07-29T04:00:54;19.10;97.10
6379;DHT22;3222;48.858;10.128;2022-07-29T04:03:21;19.10;96.90
6379;DHT22;3222;48.858;10.128;2022-07-29T04:06:02;19.00;97.00
6379;DHT22;3222;48.858;10.128;2022-07-29T04:08:28;19.00;97.20
6379;DHT22;3222;48.858;10.128;2022-07-29T04:10:54;19.00;97.10
6379;DHT22;3222;48.858;10.128;2022-07-29T04:13:20;19.00;97.00
6379;DHT22;3222;48.858;10.128;2022-07-29T04:15:46;19.00;97.10
6379;DHT22;3222;48.858;10.128;2022-07-29T04:18:11;19.00;97.20
6379;DHT22;3222;48.858;10.128;2022-07-29T04:20:37;18.90;97.20
6379;DHT22;3222;48.858;10.128;2022-07-29T04:23:03;18.90;97.20
6379;DHT22;3222;48.858;10.128;2022-07-29T04:25:28;18.90;97.10
6379;DHT22;3222;48.858;10.128;2022-07-29T04:27:54;19.00;97.10
6379;DHT22;3222;48.858;10.128;2022-07-29T04:30:25;19.00;97.00
6379;DHT22;3222;48.858;10.128;2022-07-29T04:32:51;18.90;97.20
6379;DHT22;3222;48.858;10.128;2022-07-29T04:35:18;18.90;97.40
6379;DHT22;3222;48.858;10.128;2022-07-29T04:37:44;18.80;97.30
6379;DHT22;3222;48.858;10.128;2022-07-29T04:40:10;19.00;97.40
6379;DHT22;3222;48.858;10.128;2022-07-29T04:42:35;19.00;97.40
6379;DHT22;3222;48.858;10.128;2022-07-29T04:45:01;18.90;97.30
6379;DHT22;3222;48.858;10.128;2022-07-29T04:47:27;18.90;97.30
6379;DHT22;3222;48.858;10.128;2022-07-29T04:49:52;18.90;97.50
6379;DHT22;3222;48.858;10.128;2022-07-29T04:52:18;18.90;97.40
6379;DHT22;3222;48.858;10.128;2022-07-29T04:54:44;19.10;97.50
6379;DHT22;3222;48.858;10.128;2022-07-29T04:57:09;19.10;97.30
6379;DHT22;3222;48.858;10.128;2022-07-29T04:59:35;19.00;97.50
6379;DHT22;3222;48.858;10.128;2022-07-29T05:02:00;19.00;97.60
6379;DHT22;3222;48.858;10.128;2022-07-29T05:04:26;18.90;97.60
6379;DHT22;3222;48.858;10.128;2022-07-29T05:06:52;18.90;97.80
6379;DHT22;3222;48.858;10.128;2022-07-29T05:09:17;18.80;97.90
6379;DHT22;3222;48.858;10.128;2022-07-29T05:11:43;18.80;97.70
6379;DHT22;3222;48.858;10.128;2022-07-29T05:14:09;18.90;97.90
6379;DHT22;3222;48.858;10.128;2022-07-29T05:16:34;18.90;97.80
6379;DHT22;3222;48.858;10.128;2022-07-29T05:19:00;18.90;97.80
6379;DHT22;3222;48.858;10.128;2022-07-29T05:21:26;18.90;97.90
6379;DHT22;3222;48.858;10.128;2022-07-29T05:23:51;18.90;98.10
6379;DHT22;3222;48.858;10.128;2022-07-29T05:26:18;19.10;98.20
6379;DHT22;3222;48.858;10.128;2022-07-29T05:28:44;19.10;98.20
6379;DHT22;3222;48.858;10.128;2022-07-29T05:31:09;19.10;98.40
6379;DHT22;3222;48.858;10.128;2022-07-29T05:33:35;19.10;98.20
6379;DHT22;3222;48.858;10.128;2022-07-29T05:36:01;19.20;98.30
6379;DHT22;3222;48.858;10.128;2022-07-29T05:38:26;19.40;98.40
6379;DHT22;3222;48.858;10.128;2022-07-29T05:40:52;19.70;98.30
6379;DHT22;3222;48.858;10.128;2022-07-29T05:43:18;19.90;98.10
6379;DHT22;3222;48.858;10.128;2022-07-29T05:45:43;20.10;97.90
6379;DHT22;3222;48.858;10.128;2022-07-29T05:48:09;20.20;97.90
6379;DHT22;3222;48.858;10.128;2022-07-29T05:50:34;20.00;97.80
6379;DHT22;3222;48.858;10.128;2022-07-29T05:53:00;20.00;98.00
6379;DHT22;3222;48.858;10.128;2022-07-29T05:55:26;20.00;98.10
6379;DHT22;3222;48.858;10.128;2022-07-29T05:57:52;20.00;98.20
6379;DHT22;3222;48.858;10.128;2022-07-29T06:00:18;20.10;98.30
6379;DHT22;3222;48.858;10.128;2022-07-29T06:02:43;20.00;98.30
6379;DHT22;3222;48.858;10.128;2022-07-29T06:05:09;20.00;98.50
6379;DHT22;3222;48.858;10.128;2022-07-29T06:07:35;19.90;98.70
6379;DHT22;3222;48.858;10.128;2022-07-29T06:10:00;20.00;98.90
6379;DHT22;3222;48.858;10.128;2022-07-29T06:12:26;20.00;99.00
6379;DHT22;3222;48.858;10.128;2022-07-29T06:14:52;20.00;99.00
6379;DHT22;3222;48.858;10.128;2022-07-29T06:17:17;19.90;99.30
6379;DHT22;3222;48.858;10.128;2022-07-29T06:19:43;20.00;99.50
6379;DHT22;3222;48.858;10.128;2022-07-29T06:22:09;20.00;99.20
6379;DHT22;3222;48.858;10.128;2022-07-29T06:24:36;20.00;99.30
6379;DHT22;3222;48.858;10.128;2022-07-29T06:27:02;20.10;99.30
6379;DHT22;3222;48.858;10.128;2022-07-29T06:29:28;20.10;99.30
6379;DHT22;3222;48.858;10.128;2022-07-29T06:31:54;20.10;99.40
6379;DHT22;3222;48.858;10.128;2022-07-29T06:34:20;20.10;99.40
6379;DHT22;3222;48.858;10.128;2022-07-29T06:36:45;20.20;99.30
6379;DHT22;3222;48.858;10.128;2022-07-29T06:39:11;20.20;99.50
6379;DHT22;3222;48.858;10.128;2022-07-29T06:41:37;20.10;99.50
6379;DHT22;3222;48.858;10.128;2022-07-29T06:44:08;20.20;99.60
6379;DHT22;3222;48.858;10.128;2022-07-29T06:46:34;20.30;99.80
6379;DHT22;3222;48.858;10.128;2022-07-29T06:49:00;20.20;99.90
6379;DHT22;3222;48.858;10.128;2022-07-29T06:51:26;20.20;99.90
6379;DHT22;3222;48.858;10.128;2022-07-29T06:53:53;20.30;99.90
6379;DHT22;3222;48.858;10.128;2022-07-29T06:56:18;20.40;99.90
6379;DHT22;3222;48.858;10.128;2022-07-29T06:58:44;20.40;99.90
6379;DHT22;3222;48.858;10.128;2022-07-29T07:01:10;20.40;99.90
6379;DHT22;3222;48.858;10.128;2022-07-29T07:03:35;20.40;99.90
6379;DHT22;3222;48.858;10.128;2022-07-29T07:06:01;20.40;99.90
6379;DHT22;3222;48.858;10.128;2022-07-29T07:08:26;20.40;99.90
6379;DHT22;3222;48.858;10.128;2022-07-29T07:10:52;20.40;99.90
6379;DHT22;3222;48.858;10.128;2022-07-29T07:13:18;20.50;99.90
6379;DHT22;3222;48.858;10.128;2022-07-29T07:15:45;20.60;99.90
6379;DHT22;3222;48.858;10.128;2022-07-29T07:18:13;20.60;99.90
6379;DHT22;3222;48.858;10.128;2022-07-29T07:20:39;20.60;99.90
6379;DHT22;3222;48.858;10.128;2022-07-29T07:23:05;20.50;99.90
6379;DHT22;3222;48.858;10.128;2022-07-29T07:25:31;20.50;99.90
6379;DHT22;3222;48.858;10.128;2022-07-29T07:27:57;20.60;99.90
6379;DHT22;3222;48.858;10.128;2022-07-29T07:30:23;20.50;99.90
6379;DHT22;3222;48.858;10.128;2022-07-29T07:32:49;20.60;99.90
6379;DHT22;3222;48.858;10.128;2022-07-29T07:35:14;20.60;99.90
6379;DHT22;3222;48.858;10.128;2022-07-29T07:37:40;20.60;99.90
6379;DHT22;3222;48.858;10.128;2022-07-29T07:40:08;20.60;99.90
6379;DHT22;3222;48.858;10.128;2022-07-29T07:42:34;20.70;99.90
6379;DHT22;3222;48.858;10.128;2022-07-29T07:44:59;20.60;99.90
6379;DHT22;3222;48.858;10.128;2022-07-29T07:47:25;20.70;99.90
6379;DHT22;3222;48.858;10.128;2022-07-29T07:49:52;20.80;99.90
6379;DHT22;3222;48.858;10.128;2022-07-29T07:52:20;21.00;99.90
6379;DHT22;3222;48.858;10.128;2022-07-29T07:54:46;20.90;99.90
6379;DHT22;3222;48.858;10.128;2022-07-29T07:57:13;21.00;99.90
6379;DHT22;3222;48.858;10.128;2022-07-29T07:59:39;21.10;99.90
6379;DHT22;3222;48.858;10.128;2022-07-29T08:02:05;21.00;99.90
6379;DHT22;3222;48.858;10.128;2022-07-29T08:04:31;21.20;99.90
6379;DHT22;3222;48.858;10.128;2022-07-29T08:06:57;21.20;99.90
6379;DHT22;3222;48.858;10.128;2022-07-29T08:09:24;21.10;99.90
6379;DHT22;3222;48.858;10.128;2022-07-29T08:11:51;21.30;99.90
6379;DHT22;3222;48.858;10.128;2022-07-29T08:14:16;21.30;99.90
6379;DHT22;3222;48.858;10.128;2022-07-29T08:16:42;21.40;99.90
6379;DHT22;3222;48.858;10.128;2022-07-29T08:19:08;21.40;99.90
6379;DHT22;3222;48.858;10.128;2022-07-29T08:21:34;21.40;99.90
6379;DHT22;3222;48.858;10.128;2022-07-29T08:24:00;21.60;99.90
6379;DHT22;3222;48.858;10.128;2022-07-29T08:26:45;21.50;99.90
6379;DHT22;3222;48.858;10.128;2022-07-29T08:29:11;21.70;99.90
6379;DHT22;3222;48.858;10.128;2022-07-29T08:31:37;21.70;99.90
6379;DHT22;3222;48.858;10.128;2022-07-29T08:34:04;21.80;99.90
6379;DHT22;3222;48.858;10.128;2022-07-29T08:36:30;21.90;99.90
6379;DHT22;3222;48.858;10.128;2022-07-29T08:38:57;21.80;99.60
6379;DHT22;3222;48.858;10.128;2022-07-29T08:41:23;21.80;99.40
6379;DHT22;3222;48.858;10.128;2022-07-29T08:43:50;21.80;99.50
6379;DHT22;3222;48.858;10.128;2022-07-29T08:46:16;21.70;99.50
6379;DHT22;3222;48.858;10.128;2022-07-29T08:48:42;21.90;99.00
6379;DHT22;3222;48.858;10.128;2022-07-29T08:51:08;21.90;99.30
6379;DHT22;3222;48.858;10.128;2022-07-29T08:53:41;21.90;98.90
6379;DHT22;3222;48.858;10.128;2022-07-29T08:56:07;21.90;99.00
6379;DHT22;3222;48.858;10.128;2022-07-29T08:58:34;21.80;99.00
6379;DHT22;3222;48.858;10.128;2022-07-29T09:01:01;21.90;99.20
6379;DHT22;3222;48.858;10.128;2022-07-29T09:03:31;21.90;99.00
6379;DHT22;3222;48.858;10.128;2022-07-29T09:05:58;22.00;98.90
6379;DHT22;3222;48.858;10.128;2022-07-29T09:08:25;22.20;99.00
6379;DHT22;3222;48.858;10.128;2022-07-29T09:10:51;22.20;98.90
6379;DHT22;3222;48.858;10.128;2022-07-29T09:13:17;22.20;98.90
6379;DHT22;3222;48.858;10.128;2022-07-29T09:15:44;22.30;98.70
6379;DHT22;3222;48.858;10.128;2022-07-29T09:18:09;22.30;98.90
6379;DHT22;3222;48.858;10.128;2022-07-29T09:20:35;22.30;99.00
6379;DHT22;3222;48.858;10.128;2022-07-29T09:23:19;22.10;98.90
6379;DHT22;3222;48.858;10.128;2022-07-29T09:25:45;22.20;98.50
6379;DHT22;3222;48.858;10.128;2022-07-29T09:28:16;22.20;98.60
6379;DHT22;3222;48.858;10.128;2022-07-29T09:30:51;22.20;98.70
6379;DHT22;3222;48.858;10.128;2022-07-29T09:33:17;22.20;98.70
6379;DHT22;3222;48.858;10.128;2022-07-29T09:35:43;22.40;98.60
6379;DHT22;3222;48.858;10.128;2022-07-29T09:38:12;22.50;98.50
6379;DHT22;3222;48.858;10.128;2022-07-29T09:40:38;22.60;98.50
6379;DHT22;3222;48.858;10.128;2022-07-29T09:43:11;22.70;98.50
6379;DHT22;3222;48.858;10.128;2022-07-29T09:45:38;22.80;98.50
6379;DHT22;3222;48.858;10.128;2022-07-29T09:48:15;22.80;98.50
6379;DHT22;3222;48.858;10.128;2022-07-29T09:50:43;22.80;98.40
6379;DHT22;3222;48.858;10.128;2022-07-29T09:53:10;22.90;98.30
6379;DHT22;3222;48.858;10.128;2022-07-29T09:56:05;22.90;98.30
6379;DHT22;3222;48.858;10.128;2022-07-29T09:58:32;23.00;98.40
6379;DHT22;3222;48.858;10.128;2022-07-29T10:01:01;23.10;98.20
6379;DHT22;3222;48.858;10.128;2022-07-29T10:03:27;23.20;98.20
6379;DHT22;3222;48.858;10.128;2022-07-29T10:08:31;23.10;98.10
6379;DHT22;3222;48.858;10.128;2022-07-29T10:11:17;23.00;98.10
6379;DHT22;3222;48.858;10.128;2022-07-29T10:13:44;22.90;98.30
6379;DHT22;3222;48.858;10.128;2022-07-29T10:16:11;22.90;98.30
6379;DHT22;3222;48.858;10.128;2022-07-29T10:18:41;23.00;98.40
6379;DHT22;3222;48.858;10.128;2022-07-29T10:21:07;23.30;97.90
6379;DHT22;3222;48.858;10.128;2022-07-29T10:23:34;23.30;97.90
6379;DHT22;3222;48.858;10.128;2022-07-29T10:26:00;23.30;97.90
6379;DHT22;3222;48.858;10.128;2022-07-29T10:28:27;23.20;97.90
6379;DHT22;3222;48.858;10.128;2022-07-29T10:30:57;23.30;98.00
6379;DHT22;3222;48.858;10.128;2022-07-29T10:42:23;23.70;97.80
6379;DHT22;3222;48.858;10.128;2022-07-29T10:44:50;23.70;97.90
6379;DHT22;3222;48.858;10.128;2022-07-29T10:47:24;23.70;97.20
6379;DHT22;3222;48.858;10.128;2022-07-29T10:50:04;23.70;97.40
6379;DHT22;3222;48.858;10.128;2022-07-29T10:55:38;23.90;96.70
6379;DHT22;3222;48.858;10.128;2022-07-29T10:58:18;23.90;96.30
6379;DHT22;3222;48.858;10.128;2022-07-29T11:00:51;23.80;96.50
6379;DHT22;3222;48.858;10.128;2022-07-29T11:06:06;24.00;96.70
6379;DHT22;3222;48.858;10.128;2022-07-29T11:08:31;24.00;96.80
6379;DHT22;3222;48.858;10.128;2022-07-29T11:13:46;23.90;96.70
6379;DHT22;3222;48.858;10.128;2022-07-29T11:16:13;23.90;96.80
6379;DHT22;3222;48.858;10.128;2022-07-29T11:21:44;24.10;96.00
6379;DHT22;3222;48.858;10.128;2022-07-29T11:24:27;24.20;95.20
6379;DHT22;3222;48.858;10.128;2022-07-29T11:27:13;24.30;95.20
6379;DHT22;3222;48.858;10.128;2022-07-29T11:32:15;24.40;95.40
6379;DHT22;3222;48.858;10.128;2022-07-29T11:34:43;24.40;95.30
6379;DHT22;3222;48.858;10.128;2022-07-29T11:40:19;24.40;95.30
6379;DHT22;3222;48.858;10.128;2022-07-29T11:50:30;24.30;95.00
6379;DHT22;3222;48.858;10.128;2022-07-29T11:52:56;24.30;94.90
6379;DHT22;3222;48.858;10.128;2022-07-29T11:55:23;24.30;94.60
6379;DHT22;3222;48.858;10.128;2022-07-29T11:57:54;24.30;94.70
6379;DHT22;3222;48.858;10.128;2022-07-29T12:02:58;24.20;95.00
6379;DHT22;3222;48.858;10.128;2022-07-29T12:05:34;24.20;94.90
6379;DHT22;3222;48.858;10.128;2022-07-29T12:10:37;24.30;94.90
6379;DHT22;3222;48.858;10.128;2022-07-29T12:13:04;24.50;95.10
6379;DHT22;3222;48.858;10.128;2022-07-29T12:15:30;24.50;95.30
6379;DHT22;3222;48.858;10.128;2022-07-29T12:17:56;24.50;95.30
6379;DHT22;3222;48.858;10.128;2022-07-29T12:20:29;24.60;95.20
6379;DHT22;3222;48.858;10.128;2022-07-29T12:22:55;24.60;95.20
6379;DHT22;3222;48.858;10.128;2022-07-29T12:25:23;24.40;95.40
6379;DHT22;3222;48.858;10.128;2022-07-29T12:28:09;24.30;95.60
6379;DHT22;3222;48.858;10.128;2022-07-29T12:30:47;24.20;95.70
6379;DHT22;3222;48.858;10.128;2022-07-29T12:35:52;24.40;95.40
6379;DHT22;3222;48.858;10.128;2022-07-29T12:38:19;24.30;95.10
6379;DHT22;3222;48.858;10.128;2022-07-29T12:40:46;24.50;94.00
6379;DHT22;3222;48.858;10.128;2022-07-29T12:43:16;24.50;91.90
6379;DHT22;3222;48.858;10.128;2022-07-29T12:45:48;24.40;91.00
6379;DHT22;3222;48.858;10.128;2022-07-29T12:48:16;24.20;91.00
6379;DHT22;3222;48.858;10.128;2022-07-29T12:50:56;24.10;91.30
6379;DHT22;3222;48.858;10.128;2022-07-29T12:53:22;24.10;91.00
6379;DHT22;3222;48.858;10.128;2022-07-29T12:55:51;24.00;91.10
6379;DHT22;3222;48.858;10.128;2022-07-29T12:58:36;24.00;91.40
6379;DHT22;3222;48.858;10.128;2022-07-29T13:01:06;23.90;91.20
6379;DHT22;3222;48.858;10.128;2022-07-29T13:03:53;23.90;91.40
6379;DHT22;3222;48.858;10.128;2022-07-29T13:11:32;23.70;92.20
6379;DHT22;3222;48.858;10.128;2022-07-29T13:13:57;23.80;92.30
6379;DHT22;3222;48.858;10.128;2022-07-29T13:16:23;23.70;92.20
6379;DHT22;3222;48.858;10.128;2022-07-29T13:19:06;23.80;92.00
6379;DHT22;3222;48.858;10.128;2022-07-29T13:21:32;23.70;92.30
6379;DHT22;3222;48.858;10.128;2022-07-29T13:23:58;23.70;92.30
6379;DHT22;3222;48.858;10.128;2022-07-29T13:26:24;23.70;92.40
6379;DHT22;3222;48.858;10.128;2022-07-29T13:28:49;23.70;92.60
6379;DHT22;3222;48.858;10.128;2022-07-29T13:31:15;23.70;92.60
6379;DHT22;3222;48.858;10.128;2022-07-29T13:33:41;23.60;92.90
6379;DHT22;3222;48.858;10.128;2022-07-29T13:36:06;23.60;93.00
6379;DHT22;3222;48.858;10.128;2022-07-29T13:38:32;23.70;93.00
6379;DHT22;3222;48.858;10.128;2022-07-29T13:40:59;23.70;92.70
6379;DHT22;3222;48.858;10.128;2022-07-29T13:43:25;23.70;92.80
6379;DHT22;3222;48.858;10.128;2022-07-29T13:45:51;23.70;93.00
6379;DHT22;3222;48.858;10.128;2022-07-29T13:48:17;23.60;93.00
6379;DHT22;3222;48.858;10.128;2022-07-29T13:50:43;23.50;93.10
6379;DHT22;3222;48.858;10.128;2022-07-29T13:53:09;23.60;93.10
6379;DHT22;3222;48.858;10.128;2022-07-29T13:55:35;23.60;93.10
6379;DHT22;3222;48.858;10.128;2022-07-29T13:58:01;23.60;93.30
6379;DHT22;3222;48.858;10.128;2022-07-29T14:00:26;23.50;93.50
6379;DHT22;3222;48.858;10.128;2022-07-29T14:02:52;23.40;93.70
6379;DHT22;3222;48.858;10.128;2022-07-29T14:05:18;23.40;93.90
6379;DHT22;3222;48.858;10.128;2022-07-29T14:07:43;23.50;93.90
6379;DHT22;3222;48.858;10.128;2022-07-29T14:10:09;23.40;94.00
6379;DHT22;3222;48.858;10.128;2022-07-29T14:12:35;23.40;94.10
6379;DHT22;3222;48.858;10.128;2022-07-29T14:15:01;23.30;94.20
6379;DHT22;3222;48.858;10.128;2022-07-29T14:17:27;23.20;94.50
6379;DHT22;3222;48.858;10.128;2022-07-29T14:19:52;23.30;94.60
6379;DHT22;3222;48.858;10.128;2022-07-29T14:22:18;23.20;94.60
6379;DHT22;3222;48.858;10.128;2022-07-29T14:24:45;23.30;94.70
6379;DHT22;3222;48.858;10.128;2022-07-29T14:27:11;23.40;94.80
6379;DHT22;3222;48.858;10.128;2022-07-29T14:29:37;23.40;94.80
6379;DHT22;3222;48.858;10.128;2022-07-29T14:32:03;23.30;94.90
6379;DHT22;3222;48.858;10.128;2022-07-29T14:34:29;23.40;94.90
6379;DHT22;3222;48.858;10.128;2022-07-29T14:36:54;23.30;95.10
6379;DHT22;3222;48.858;10.128;2022-07-29T14:39:23;23.40;95.30
6379;DHT22;3222;48.858;10.128;2022-07-29T14:41:50;23.50;95.30
6379;DHT22;3222;48.858;10.128;2022-07-29T14:44:17;23.40;95.70
6379;DHT22;3222;48.858;10.128;2022-07-29T14:46:43;23.40;95.40
6379;DHT22;3222;48.858;10.128;2022-07-29T14:49:09;23.30;95.50
6379;DHT22;3222;48.858;10.128;2022-07-29T14:51:34;23.40;95.60
6379;DHT22;3222;48.858;10.128;2022-07-29T14:54:00;23.40;95.20
6379;DHT22;3222;48.858;10.128;2022-07-29T14:56:26;23.50;95.20
6379;DHT22;3222;48.858;10.128;2022-07-29T14:58:52;23.50;95.20
6379;DHT22;3222;48.858;10.128;2022-07-29T15:01:18;23.50;95.30
6379;DHT22;3222;48.858;10.128;2022-07-29T15:03:44;23.40;95.40
6379;DHT22;3222;48.858;10.128;2022-07-29T15:06:09;23.40;95.50
6379;DHT22;3222;48.858;10.128;2022-07-29T15:08:35;23.40;95.40
6379;DHT22;3222;48.858;10.128;2022-07-29T15:11:00;23.50;95.30
6379;DHT22;3222;48.858;10.128;2022-07-29T15:13:26;23.40;95.40
6379;DHT22;3222;48.858;10.128;2022-07-29T15:15:52;23.30;95.50
6379;DHT22;3222;48.858;10.128;2022-07-29T15:18:18;23.40;95.60
6379;DHT22;3222;48.858;10.128;2022-07-29T15:20:43;23.40;95.60
6379;DHT22;3222;48.858;10.128;2022-07-29T15:23:11;23.40;95.70
6379;DHT22;3222;48.858;10.128;2022-07-29T15:25:38;23.30;95.90
6379;DHT22;3222;48.858;10.128;2022-07-29T15:28:04;23.30;96.00
6379;DHT22;3222;48.858;10.128;2022-07-29T15:30:33;23.40;96.10
6379;DHT22;3222;48.858;10.128;2022-07-29T15:32:59;23.30;95.70
6379;DHT22;3222;48.858;10.128;2022-07-29T15:35:25;23.20;96.10
6379;DHT22;3222;48.858;10.128;2022-07-29T15:37:51;23.20;95.90
6379;DHT22;3222;48.858;10.128;2022-07-29T15:40:16;23.00;96.20
6379;DHT22;3222;48.858;10.128;2022-07-29T15:42:42;23.10;96.40
6379;DHT22;3222;48.858;10.128;2022-07-29T15:45:08;22.80;96.60
6379;DHT22;3222;48.858;10.128;2022-07-29T15:47:37;22.80;96.80
6379;DHT22;3222;48.858;10.128;2022-07-29T15:50:03;22.70;96.90
6379;DHT22;3222;48.858;10.128;2022-07-29T15:52:29;22.70;96.70
6379;DHT22;3222;48.858;10.128;2022-07-29T15:54:55;22.60;96.70
6379;DHT22;3222;48.858;10.128;2022-07-29T15:57:21;22.60;96.90
6379;DHT22;3222;48.858;10.128;2022-07-29T15:59:47;22.60;97.10
6379;DHT22;3222;48.858;10.128;2022-07-29T16:02:12;22.70;97.00
6379;DHT22;3222;48.858;10.128;2022-07-29T16:04:38;22.60;97.20
6379;DHT22;3222;48.858;10.128;2022-07-29T16:07:04;22.70;96.80
6379;DHT22;3222;48.858;10.128;2022-07-29T16:09:29;22.60;97.00
6379;DHT22;3222;48.858;10.128;2022-07-29T16:11:55;22.70;97.00
6379;DHT22;3222;48.858;10.128;2022-07-29T16:14:21;22.50;97.10
6379;DHT22;3222;48.858;10.128;2022-07-29T16:16:47;22.40;97.60
6379;DHT22;3222;48.858;10.128;2022-07-29T16:19:12;22.40;97.60
6379;DHT22;3222;48.858;10.128;2022-07-29T16:21:39;22.30;97.70
6379;DHT22;3222;48.858;10.128;2022-07-29T16:24:05;22.30;97.90
6379;DHT22;3222;48.858;10.128;2022-07-29T16:26:31;22.30;97.90
6379;DHT22;3222;48.858;10.128;2022-07-29T16:28:57;22.30;98.20
6379;DHT22;3222;48.858;10.128;2022-07-29T16:31:24;22.30;98.10
6379;DHT22;3222;48.858;10.128;2022-07-29T16:33:51;22.30;98.10
6379;DHT22;3222;48.858;10.128;2022-07-29T16:36:17;22.30;98.00
6379;DHT22;3222;48.858;10.128;2022-07-29T16:38:43;22.30;98.00
6379;DHT22;3222;48.858;10.128;2022-07-29T16:41:09;22.30;98.00
6379;DHT22;3222;48.858;10.128;2022-07-29T16:43:34;22.20;98.00